Time;durP1;ratioP1;P1;durP2;ratioP2;P2;SDS_P1;SDS_P2;PMS_P1;PMS_P2;Temp;Humidity;BMP_temperature;BMP_pressure;BME280_temperature;BME280_humidity;BME280_pressure;Samples;Min_cycle;Max_cycle;Signal;HPM_P1;HPM_P2
2022/04/01 04:54:59;;;;;;;48.20;22.85;;;;;;;8.57;100.00;97888.59;5555606;32;217841;-85
2022/04/01 04:58:08;;;;;;;39.83;21.52;;;;;;;8.53;100.00;97890.66;5543132;32;34214;-85
2022/04/01 05:01:24;;;;;;;42.15;23.08;;;;;;;8.55;100.00;97893.19;5543232;32;33943;-85
2022/04/01 05:04:39;;;;;;;36.33;19.05;;;;;;;8.59;100.00;97899.88;5543134;32;33766;-85
2022/04/01 05:08:10;;;;;;;31.73;16.65;;;;;;;8.62;100.00;97907.56;5543443;32;34578;-85
2022/04/01 05:11:47;;;;;;;28.20;15.27;;;;;;;8.55;100.00;97907.22;5543224;32;33578;-85
2022/04/01 05:15:08;;;;;;;26.75;14.68;;;;;;;8.61;100.00;97909.38;5543038;32;34018;-89
2022/04/01 05:18:16;;;;;;;27.73;13.55;;;;;;;8.58;100.00;97903.50;5544098;32;33633;-85
2022/04/01 05:21:22;;;;;;;23.62;13.65;;;;;;;8.56;100.00;97906.25;5546066;32;34258;-85
2022/04/01 05:24:31;;;;;;;22.83;12.63;;;;;;;8.66;100.00;97908.16;5542921;32;34429;-85
2022/04/01 05:27:50;;;;;;;22.50;12.98;;;;;;;8.77;100.00;97914.25;5542815;32;33642;-85
2022/04/01 05:31:04;;;;;;;21.10;12.95;;;;;;;8.68;100.00;97922.94;5542945;32;33980;-85
2022/04/01 05:34:13;;;;;;;22.95;13.23;;;;;;;8.81;100.00;97919.28;5560790;32;33602;-85
2022/04/01 05:37:18;;;;;;;19.08;12.35;;;;;;;8.62;100.00;97918.97;5560409;32;34228;-85
2022/04/01 05:40:22;;;;;;;21.90;12.95;;;;;;;8.65;100.00;97917.88;5552445;32;33740;-85
2022/04/01 05:43:28;;;;;;;19.67;12.82;;;;;;;8.76;100.00;97920.50;5539363;32;34274;-85
2022/04/01 05:46:37;;;;;;;18.30;12.60;;;;;;;8.79;100.00;97919.41;5545186;32;33135;-84
2022/04/01 05:49:42;;;;;;;18.15;12.15;;;;;;;8.84;100.00;97919.87;5534054;32;33792;-85
2022/04/01 05:52:47;;;;;;;18.95;12.00;;;;;;;8.88;100.00;97910.75;5541670;32;33913;-85
2022/04/01 05:55:54;;;;;;;19.17;12.10;;;;;;;8.81;100.00;97906.06;5548706;32;32299;-85
2022/04/01 05:58:56;;;;;;;17.25;11.60;;;;;;;8.74;100.00;97909.22;5551993;32;35253;-86
2022/04/01 06:02:16;;;;;;;18.92;12.20;;;;;;;8.74;100.00;97903.94;5593298;26;33588;-89
2022/04/01 06:05:35;;;;;;;16.83;11.90;;;;;;;8.74;100.00;97908.38;5641195;26;33584;-90
2022/04/01 06:12:45;;;;;;;17.40;11.25;;;;;;;8.81;100.00;97906.06;5461255;32;20450;-86
2022/04/01 06:16:08;;;;;;;16.27;11.55;;;;;;;8.88;100.00;97912.53;5463621;32;34393;-86
2022/04/01 06:19:23;;;;;;;18.65;11.27;;;;;;;8.93;100.00;97918.28;5460925;32;33238;-87
2022/04/01 06:22:33;;;;;;;16.87;11.88;;;;;;;8.94;100.00;97919.13;5467490;32;33561;-86
2022/04/01 06:25:42;;;;;;;16.60;11.27;;;;;;;9.03;100.00;97915.72;5467517;32;34049;-87
2022/04/01 06:29:18;;;;;;;14.85;10.48;;;;;;;9.12;100.00;97914.97;5457709;32;32490;-86
2022/04/01 06:36:13;;;;;;;15.10;10.98;;;;;;;8.87;100.00;97918.78;5483936;32;34828;-88
2022/04/01 06:39:29;;;;;;;16.73;11.32;;;;;;;8.88;100.00;97917.81;5479037;32;34018;-87
2022/04/01 06:49:49;;;;;;;16.48;11.77;;;;;;;8.84;100.00;97911.94;5537992;32;31159;-87
2022/04/01 06:52:56;;;;;;;16.67;11.07;;;;;;;8.99;100.00;97914.28;5560270;26;32874;-88
2022/04/01 06:56:04;;;;;;;13.02;9.88;;;;;;;9.11;100.00;97918.53;5554349;26;32008;-88
2022/04/01 06:59:08;;;;;;;9.32;7.18;;;;;;;9.03;100.00;97921.00;5576420;26;34692;-87
2022/04/01 07:02:12;;;;;;;6.70;5.30;;;;;;;8.98;100.00;97925.81;5577960;26;34124;-86
2022/04/01 07:05:18;;;;;;;8.23;5.75;;;;;;;8.91;100.00;97928.16;5571090;26;33983;-86
2022/04/01 07:08:21;;;;;;;6.05;4.55;;;;;;;8.89;100.00;97933.56;5540051;26;33887;-87
2022/04/01 07:11:52;;;;;;;6.10;4.70;;;;;;;8.93;100.00;97925.38;5588000;26;34452;-86
2022/04/01 07:15:19;;;;;;;7.45;5.22;;;;;;;8.89;100.00;97933.56;5584971;26;35155;-88
2022/04/01 07:18:27;;;;;;;7.15;4.95;;;;;;;8.91;100.00;97936.09;5605608;26;34031;-87
2022/04/01 07:21:32;;;;;;;7.25;5.78;;;;;;;8.88;100.00;97933.69;5549081;26;34301;-87
2022/04/01 07:24:39;;;;;;;8.15;5.62;;;;;;;8.95;100.00;97926.91;5570293;26;33967;-88
2022/04/01 07:27:51;;;;;;;7.12;5.68;;;;;;;8.87;100.00;97927.56;5561210;26;33908;-88
2022/04/01 07:30:55;;;;;;;6.15;5.28;;;;;;;8.91;100.00;97925.50;5517772;32;34781;-87
2022/04/01 07:34:00;;;;;;;7.78;5.97;;;;;;;8.90;100.00;97927.31;5572220;26;33872;-88
2022/04/01 07:37:04;;;;;;;7.70;5.30;;;;;;;9.07;100.00;97924.22;5576201;26;34440;-88
2022/04/01 07:40:09;;;;;;;5.05;4.45;;;;;;;9.04;100.00;97927.97;5528338;32;34091;-88
2022/04/01 07:43:15;;;;;;;5.85;4.22;;;;;;;9.07;100.00;97926.88;5577672;26;35178;-88
2022/04/01 07:53:42;;;;;;;4.72;4.20;;;;;;;9.19;100.00;97928.50;4977435;30;20077;-87
2022/04/01 07:56:59;;;;;;;5.47;4.57;;;;;;;9.03;100.00;97932.44;5527705;26;33796;-88
2022/04/01 08:00:03;;;;;;;6.10;5.00;;;;;;;8.93;100.00;97936.78;5484763;32;34147;-88
2022/04/01 08:03:23;;;;;;;5.35;4.85;;;;;;;8.81;100.00;97933.34;5476488;32;34788;-89
2022/04/01 08:06:30;;;;;;;6.32;4.78;;;;;;;8.80;100.00;97931.66;5524738;26;33602;-89
2022/04/01 08:09:35;;;;;;;6.62;5.32;;;;;;;8.91;100.00;97941.38;5536451;26;33671;-88
2022/04/01 08:12:39;;;;;;;8.15;5.62;;;;;;;8.70;100.00;97939.50;5550957;26;34120;-88
2022/04/01 08:15:45;;;;;;;6.60;5.78;;;;;;;8.60;100.00;97943.87;5570831;26;32500;-89
2022/04/01 08:18:54;;;;;;;6.20;5.60;;;;;;;8.49;100.00;97952.59;5555714;26;34526;-89
2022/04/01 08:21:58;;;;;;;5.78;5.12;;;;;;;8.50;100.00;97956.91;5532045;32;34594;-89
2022/04/01 08:25:01;;;;;;;6.53;5.50;;;;;;;8.21;100.00;97966.19;5541681;32;33933;-88
2022/04/01 08:28:04;;;;;;;5.12;4.43;;;;;;;8.17;100.00;97963.94;5532091;32;33735;-88
2022/04/01 08:31:10;;;;;;;6.80;4.30;;;;;;;8.15;100.00;97969.31;5545323;32;35225;-88
2022/04/01 08:34:13;;;;;;;4.70;3.85;;;;;;;8.20;100.00;97974.28;5540271;32;34828;-88
2022/04/01 08:37:16;;;;;;;4.10;3.70;;;;;;;8.18;100.00;97963.81;5528540;32;34710;-90
2022/04/01 08:40:27;;;;;;;4.30;3.90;;;;;;;7.95;100.00;97965.63;5520360;32;33885;-88
2022/04/01 08:43:36;;;;;;;4.70;4.20;;;;;;;8.05;100.00;97982.41;5519408;32;34441;-88
2022/04/01 08:46:39;;;;;;;4.55;4.15;;;;;;;8.14;100.00;97985.31;5512727;32;34123;-88
2022/04/01 08:49:42;;;;;;;4.35;3.95;;;;;;;8.09;100.00;97983.88;5525273;32;35049;-88
2022/04/01 08:52:49;;;;;;;5.07;4.57;;;;;;;8.17;100.00;97991.19;5513354;32;33918;-88
2022/04/01 08:55:55;;;;;;;4.55;4.15;;;;;;;7.81;100.00;97991.25;5533000;32;33909;-90
2022/04/01 08:58:58;;;;;;;9.38;4.70;;;;;;;7.64;100.00;98011.03;5516819;32;34485;-90
2022/04/01 09:29:20;;;;;;;2.08;1.92;;;;;;;7.90;100.00;98013.47;5494066;27;20078;31
2022/04/01 09:36:13;;;;;;;2.40;2.20;;;;;;;7.88;100.00;98023.31;832797;30;20873;-88
2022/04/01 09:39:19;;;;;;;1.83;1.73;;;;;;;7.90;100.00;98018.75;5456485;32;31752;-87
2022/04/01 09:42:24;;;;;;;2.25;2.03;;;;;;;7.86;100.00;98019.13;5451845;32;33897;-87
2022/04/01 09:45:35;;;;;;;2.65;2.00;;;;;;;7.74;100.00;98027.00;5452301;32;33876;-87
2022/04/01 09:48:40;;;;;;;3.42;3.12;;;;;;;8.13;100.00;98023.22;5474544;32;33896;-87
2022/04/01 09:51:44;;;;;;;5.03;3.30;;;;;;;7.82;100.00;98023.78;5474528;32;34539;-87
2022/04/01 09:55:07;;;;;;;3.87;3.20;;;;;;;7.76;100.00;98021.63;5491968;32;34152;-86
2022/04/01 09:58:12;;;;;;;3.97;3.60;;;;;;;8.08;100.00;98032.34;5490567;32;34040;-87
2022/04/01 10:01:17;;;;;;;4.00;3.60;;;;;;;8.06;100.00;98028.16;5493345;32;34119;-86
2022/04/01 10:04:20;;;;;;;4.70;4.20;;;;;;;7.96;100.00;98038.59;5492433;32;34314;-87
2022/04/01 10:07:25;;;;;;;4.15;3.40;;;;;;;7.94;100.00;98043.13;5488145;32;33801;-87
2022/04/01 10:10:29;;;;;;;4.45;4.05;;;;;;;8.14;100.00;98036.31;5475288;32;33996;-88
2022/04/01 10:13:34;;;;;;;6.00;4.55;;;;;;;7.95;100.00;98044.81;5479977;32;33783;-88
2022/04/01 10:16:42;;;;;;;4.12;3.67;;;;;;;8.02;100.00;98046.03;5475371;32;33997;-87
2022/04/01 10:19:49;;;;;;;4.90;4.40;;;;;;;7.72;100.00;98042.13;5478938;32;33655;-91
2022/04/01 10:22:53;;;;;;;5.57;4.25;;;;;;;7.71;100.00;98045.72;5474405;32;33746;-91
2022/04/01 10:26:14;;;;;;;5.00;4.50;;;;;;;7.94;100.00;98043.13;5489997;32;33016;-87
2022/04/01 10:29:18;;;;;;;5.47;4.62;;;;;;;8.13;100.00;98053.12;5491924;32;34386;-86
2022/04/01 10:32:26;;;;;;;5.62;4.80;;;;;;;8.08;100.00;98058.75;5488669;32;34669;-87
2022/04/01 10:35:32;;;;;;;6.87;6.05;;;;;;;7.84;100.00;98063.28;5485272;32;33855;-86
2022/04/01 10:38:35;;;;;;;6.68;5.72;;;;;;;7.53;100.00;98064.59;5489938;32;34353;-86
2022/04/01 10:41:38;;;;;;;6.20;5.60;;;;;;;7.78;100.00;98073.31;5499083;32;34505;-86
2022/04/01 10:44:44;;;;;;;6.28;5.30;;;;;;;7.75;100.00;98070.91;5497930;32;34710;-86
2022/04/01 10:51:37;;;;;;;7.85;6.10;;;;;;;7.72;100.00;98071.16;5510044;32;34286;-86
2022/04/01 10:54:45;;;;;;;6.35;5.53;;;;;;;7.85;100.00;98072.87;5510643;32;34137;-85
2022/04/01 10:57:50;;;;;;;6.07;4.90;;;;;;;8.47;100.00;98076.94;5506730;32;34730;-84
2022/04/01 11:00:54;;;;;;;7.45;4.72;;;;;;;8.52;100.00;98084.53;5510561;32;34093;-86
2022/04/01 11:04:19;;;;;;;8.23;5.30;;;;;;;8.63;100.00;98089.81;5510142;32;34833;-85
2022/04/01 11:07:22;;;;;;;5.57;4.90;;;;;;;8.47;100.00;98089.28;5481744;32;34301;-85
2022/04/01 11:10:32;;;;;;;5.32;4.68;;;;;;;8.87;100.00;98078.28;5491279;32;34270;-85
2022/04/01 11:13:37;;;;;;;6.65;5.85;;;;;;;8.21;100.00;98085.06;5506222;32;33835;-90
2022/04/01 11:16:52;;;;;;;6.97;6.00;;;;;;;7.98;100.00;98083.34;5511170;32;34118;-91
2022/04/01 11:20:09;;;;;;;7.80;6.25;;;;;;;8.13;100.00;98092.72;5501490;32;33898;-87
2022/04/01 11:23:16;;;;;;;6.30;5.40;;;;;;;8.45;100.00;98099.97;5512923;32;34374;-86
2022/04/01 11:26:19;;;;;;;5.40;4.65;;;;;;;8.03;100.00;98099.66;5510400;32;34237;-86
2022/04/01 11:29:23;;;;;;;6.68;5.75;;;;;;;7.53;100.00;98100.69;5510612;32;33905;-85
2022/04/01 11:32:28;;;;;;;6.70;6.00;;;;;;;7.81;100.00;98096.00;5513454;32;33734;-86
2022/04/01 11:35:34;;;;;;;6.60;5.90;;;;;;;7.44;100.00;98096.94;5515166;32;33703;-85
2022/04/01 11:38:44;;;;;;;6.87;6.10;;;;;;;7.18;100.00;98098.84;5506493;32;34154;-85
2022/04/01 11:41:51;;;;;;;6.93;6.15;;;;;;;7.22;100.00;98102.94;5514641;32;35207;-86
2022/04/01 11:44:56;;;;;;;8.50;6.50;;;;;;;6.95;100.00;98096.91;5508741;32;34412;-85
2022/04/01 11:48:00;;;;;;;8.27;6.82;;;;;;;7.12;100.00;98108.03;5520117;32;34791;-85
2022/04/01 11:51:18;;;;;;;7.60;6.25;;;;;;;7.55;100.00;98115.47;5504524;32;34757;-85
2022/04/01 11:54:21;;;;;;;7.37;5.97;;;;;;;7.44;100.00;98110.13;5509455;32;34629;-85
2022/04/01 11:57:25;;;;;;;9.07;6.78;;;;;;;7.24;100.00;98104.50;5499960;32;33960;-85
2022/04/01 12:00:28;;;;;;;8.00;6.60;;;;;;;7.25;100.00;98105.38;5502032;32;33696;-85
2022/04/01 12:03:32;;;;;;;8.10;6.60;;;;;;;7.19;100.00;98106.62;5503255;32;33671;-85
2022/04/01 12:09:58;;;;;;;8.85;6.68;;;;;;;7.78;100.00;98106.78;5507733;32;33901;-85
2022/04/01 12:13:04;;;;;;;8.68;6.80;;;;;;;7.66;100.00;98104.09;5509290;32;34197;-86
2022/04/01 12:16:08;;;;;;;9.10;6.82;;;;;;;7.77;100.00;98105.09;5508599;32;34868;-85
2022/04/01 12:19:21;;;;;;;8.77;7.10;;;;;;;7.81;100.00;98107.41;5504256;32;33850;-85
2022/04/01 12:22:25;;;;;;;8.32;7.35;;;;;;;8.05;100.00;98106.50;5487158;32;34207;-90
2022/04/01 12:25:30;;;;;;;8.25;6.85;;;;;;;7.76;100.00;98111.34;5504755;32;33964;-87
2022/04/01 12:28:38;;;;;;;8.80;7.50;;;;;;;7.87;100.00;98105.25;5507297;32;33364;-86
2022/04/01 12:31:49;;;;;;;9.43;7.82;;;;;;;8.14;100.00;98117.34;5504756;32;35076;-85
2022/04/01 12:34:52;;;;;;;9.00;7.43;;;;;;;7.64;100.00;98124.50;5503641;32;34428;-85
2022/04/01 12:38:12;;;;;;;10.63;8.13;;;;;;;8.38;100.00;98129.62;5514982;32;33824;-85
2022/04/01 12:41:17;;;;;;;9.93;8.00;;;;;;;8.05;100.00;98119.72;5507733;32;34685;-85
2022/04/01 12:44:34;;;;;;;9.60;8.52;;;;;;;7.62;100.00;98136.13;5514261;32;34433;-85
2022/04/01 12:47:37;;;;;;;12.20;8.70;;;;;;;7.45;100.00;98138.22;5520785;32;33885;-85
2022/04/01 12:50:40;;;;;;;11.43;8.50;;;;;;;7.31;100.00;98144.47;5504645;32;34207;-85
2022/04/01 12:53:58;;;;;;;11.10;8.80;;;;;;;7.73;100.00;98141.44;5509749;32;35465;-85
2022/04/01 12:57:04;;;;;;;11.68;9.15;;;;;;;7.81;100.00;98152.28;5498119;32;33905;-85
2022/04/01 13:00:14;;;;;;;11.60;9.43;;;;;;;8.00;100.00;98158.81;5500990;32;33721;-85
2022/04/01 13:03:23;;;;;;;11.75;10.07;;;;;;;7.54;100.00;98163.06;5494361;32;33971;-85
2022/04/01 13:06:28;;;;;;;13.15;11.10;;;;;;;7.58;100.00;98166.34;5508922;32;34020;-86
2022/04/01 13:09:49;;;;;;;14.87;10.82;;;;;;;7.45;100.00;98161.94;5505737;32;33916;-85
2022/04/01 13:12:53;;;;;;;14.27;11.57;;;;;;;7.72;100.00;98168.78;5507150;32;33790;-84
2022/04/01 13:16:00;;;;;;;14.27;11.73;;;;;;;7.59;100.00;98160.94;5510428;32;35433;-85
2022/04/01 13:19:27;;;;;;;14.15;11.93;;;;;;;7.75;100.00;98160.62;5515790;32;35336;-89
2022/04/01 13:22:30;;;;;;;15.25;12.32;;;;;;;7.27;100.00;98172.88;5508302;32;33574;-85
2022/04/01 13:25:33;;;;;;;15.18;12.82;;;;;;;7.25;100.00;98163.38;5510454;32;34079;-86
2022/04/01 13:28:37;;;;;;;15.55;13.18;;;;;;;7.40;100.00;98164.06;5496330;32;34078;-85
2022/04/01 13:31:40;;;;;;;14.87;13.27;;;;;;;7.53;100.00;98161.38;5499525;32;34477;-85
2022/04/01 13:34:43;;;;;;;15.00;12.48;;;;;;;7.82;100.00;98168.97;5504202;32;33741;-86
2022/04/01 13:37:46;;;;;;;14.87;13.27;;;;;;;7.48;98.86;98171.41;5502982;32;33995;-85
2022/04/01 13:40:49;;;;;;;17.95;14.87;;;;;;;7.56;99.93;98182.28;5501511;32;34071;-85
2022/04/01 13:43:51;;;;;;;16.10;13.93;;;;;;;7.71;98.87;98187.37;5515110;32;34261;-85
2022/04/01 13:46:56;;;;;;;18.37;14.55;;;;;;;7.53;100.00;98172.78;5515394;32;33798;-83
2022/04/01 13:49:59;;;;;;;20.25;13.85;;;;;;;7.62;98.74;98173.91;5520197;32;33742;-85
2022/04/01 13:53:02;;;;;;;18.42;15.48;;;;;;;7.62;99.27;98176.53;5510414;32;33938;-85
2022/04/01 13:56:07;;;;;;;20.17;16.42;;;;;;;7.65;98.56;98171.03;5515632;32;34119;-84
2022/04/01 13:59:14;;;;;;;18.73;15.35;;;;;;;7.62;99.19;98181.81;5510322;32;34270;-85
2022/04/01 14:02:17;;;;;;;18.75;15.45;;;;;;;7.81;98.05;98165.47;5500833;32;34154;-85
2022/04/01 14:05:21;;;;;;;17.92;15.32;;;;;;;7.84;97.56;98169.69;5495965;32;33654;-85
2022/04/01 14:08:29;;;;;;;19.92;15.93;;;;;;;7.78;96.98;98172.78;5502501;32;33860;-85
2022/04/01 14:11:36;;;;;;;17.52;14.98;;;;;;;8.08;97.00;98176.72;5504731;32;34012;-85
2022/04/01 14:14:40;;;;;;;18.75;15.70;;;;;;;8.27;93.49;98183.28;5505054;32;34109;-85
2022/04/01 14:17:43;;;;;;;20.00;15.82;;;;;;;7.84;97.23;98187.34;5513237;32;34695;-85
2022/04/01 14:20:47;;;;;;;18.77;15.68;;;;;;;8.05;96.26;98204.22;5507514;32;35717;-84
2022/04/01 14:23:50;;;;;;;20.58;16.90;;;;;;;7.86;95.88;98201.25;5492483;32;34892;-85
2022/04/01 14:26:53;;;;;;;19.23;16.48;;;;;;;7.71;95.49;98205.84;5493998;32;35289;-85
2022/04/01 14:33:19;;;;;;;20.67;17.58;;;;;;;7.76;96.42;98212.50;5494776;32;34282;-85
2022/04/01 14:36:22;;;;;;;23.83;18.55;;;;;;;7.62;96.75;98210.00;5495262;32;34510;-84
2022/04/01 14:39:26;;;;;;;21.27;17.80;;;;;;;7.50;97.04;98214.38;5505161;32;33858;-87
2022/04/01 14:42:30;;;;;;;21.92;18.27;;;;;;;7.50;96.81;98211.72;5510287;32;34544;-86
2022/04/01 14:45:32;;;;;;;20.75;18.08;;;;;;;7.72;96.60;98213.66;5503197;32;33972;-84
2022/04/01 14:48:39;;;;;;;22.25;18.25;;;;;;;7.64;96.27;98221.31;5495239;32;34937;-84
2022/04/01 14:51:42;;;;;;;21.37;18.12;;;;;;;7.76;96.60;98216.91;5497004;32;34886;-84
2022/04/01 14:54:46;;;;;;;23.02;18.42;;;;;;;7.83;93.71;98226.06;5506175;32;33839;-88
2022/04/01 14:57:50;;;;;;;22.20;18.40;;;;;;;7.80;92.84;98229.78;5520752;32;33913;-88
2022/04/01 15:00:53;;;;;;;22.60;18.90;;;;;;;7.52;94.54;98234.41;5504198;32;34412;-89
2022/04/01 15:03:57;;;;;;;20.85;17.83;;;;;;;7.78;93.63;98244.88;5502693;32;33760;-85
2022/04/01 15:07:16;;;;;;;21.52;18.35;;;;;;;7.86;93.09;98233.78;5493581;32;33965;-85
2022/04/01 15:10:25;;;;;;;21.30;18.00;;;;;;;7.62;93.50;98234.59;5499744;32;34038;-84
2022/04/01 15:13:32;;;;;;;23.20;19.08;;;;;;;7.74;94.83;98224.94;5508044;32;34260;-84
2022/04/01 15:16:35;;;;;;;20.75;17.92;;;;;;;7.80;92.54;98229.78;5508947;32;34972;-84
2022/04/01 15:19:39;;;;;;;21.15;17.87;;;;;;;7.87;92.50;98235.47;5510530;32;33920;-84
2022/04/01 15:22:42;;;;;;;23.15;18.80;;;;;;;8.03;90.45;98239.59;5510537;32;34370;-84
2022/04/01 15:25:45;;;;;;;23.20;19.15;;;;;;;7.77;93.22;98231.78;5510419;32;34065;-85
